sensor_id;sensor_type;location;lat;lon;timestamp;P1;durP1;ratioP1;P2;durP2;ratioP2
75576;SDS011;64157;50.138;14.544;2022-11-20T06:40:39;60.72;;;24.65;;
75576;SDS011;64157;50.138;14.544;2022-11-20T06:43:05;54.60;;;23.98;;
75576;SDS011;64157;50.138;14.544;2022-11-20T06:45:31;57.20;;;23.40;;
75576;SDS011;64157;50.138;14.544;2022-11-20T06:47:59;57.60;;;23.85;;
75576;SDS011;64157;50.138;14.544;2022-11-20T06:50:25;61.78;;;24.92;;
75576;SDS011;64157;50.138;14.544;2022-11-20T06:52:50;69.47;;;27.45;;
75576;SDS011;64157;50.138;14.544;2022-11-20T06:55:16;63.13;;;26.40;;
75576;SDS011;64157;50.138;14.544;2022-11-20T06:57:41;59.83;;;24.88;;
75576;SDS011;64157;50.138;14.544;2022-11-20T07:00:07;59.97;;;24.48;;
75576;SDS011;64157;50.138;14.544;2022-11-20T07:02:32;63.05;;;27.35;;
75576;SDS011;64157;50.138;14.544;2022-11-20T07:04:58;65.50;;;27.42;;
75576;SDS011;64157;50.138;14.544;2022-11-20T07:07:23;66.95;;;27.90;;
75576;SDS011;64157;50.138;14.544;2022-11-20T07:09:49;67.32;;;28.17;;
75576;SDS011;64157;50.138;14.544;2022-11-20T07:12:14;58.50;;;26.02;;
75576;SDS011;64157;50.138;14.544;2022-11-20T07:14:39;74.78;;;31.27;;
75576;SDS011;64157;50.138;14.544;2022-11-20T07:17:05;65.38;;;25.98;;
75576;SDS011;64157;50.138;14.544;2022-11-20T07:19:30;64.05;;;25.90;;
75576;SDS011;64157;50.138;14.544;2022-11-20T07:21:56;71.82;;;30.10;;
75576;SDS011;64157;50.138;14.544;2022-11-20T07:24:21;64.03;;;24.35;;
75576;SDS011;64157;50.138;14.544;2022-11-20T07:26:46;71.97;;;30.08;;
75576;SDS011;64157;50.138;14.544;2022-11-20T07:29:14;63.83;;;26.40;;
75576;SDS011;64157;50.138;14.544;2022-11-20T07:31:40;71.97;;;29.52;;
75576;SDS011;64157;50.138;14.544;2022-11-20T07:34:06;70.25;;;27.15;;
75576;SDS011;64157;50.138;14.544;2022-11-20T07:36:31;66.13;;;26.27;;
75576;SDS011;64157;50.138;14.544;2022-11-20T07:38:57;65.07;;;26.25;;
75576;SDS011;64157;50.138;14.544;2022-11-20T07:41:22;62.63;;;26.75;;
75576;SDS011;64157;50.138;14.544;2022-11-20T07:43:48;56.83;;;23.40;;
75576;SDS011;64157;50.138;14.544;2022-11-20T07:46:13;60.28;;;26.98;;
75576;SDS011;64157;50.138;14.544;2022-11-20T07:48:39;71.85;;;28.90;;
75576;SDS011;64157;50.138;14.544;2022-11-20T07:51:04;63.25;;;28.02;;
75576;SDS011;64157;50.138;14.544;2022-11-20T07:53:30;68.65;;;26.92;;
75576;SDS011;64157;50.138;14.544;2022-11-20T07:55:58;71.35;;;28.52;;
75576;SDS011;64157;50.138;14.544;2022-11-20T07:58:24;67.88;;;28.23;;
75576;SDS011;64157;50.138;14.544;2022-11-20T08:00:50;68.25;;;27.48;;
75576;SDS011;64157;50.138;14.544;2022-11-20T08:03:15;59.55;;;25.52;;
75576;SDS011;64157;50.138;14.544;2022-11-20T08:05:41;54.83;;;23.92;;
75576;SDS011;64157;50.138;14.544;2022-11-20T08:08:07;47.17;;;18.92;;
75576;SDS011;64157;50.138;14.544;2022-11-20T08:10:32;68.13;;;27.50;;
75576;SDS011;64157;50.138;14.544;2022-11-20T08:12:58;73.93;;;29.63;;
75576;SDS011;64157;50.138;14.544;2022-11-20T08:15:47;61.65;;;26.75;;
75576;SDS011;64157;50.138;14.544;2022-11-20T08:18:15;55.22;;;23.02;;
75576;SDS011;64157;50.138;14.544;2022-11-20T08:20:40;67.47;;;29.00;;
75576;SDS011;64157;50.138;14.544;2022-11-20T08:23:07;72.22;;;34.03;;
75576;SDS011;64157;50.138;14.544;2022-11-20T08:25:33;68.18;;;26.88;;
75576;SDS011;64157;50.138;14.544;2022-11-20T08:28:01;60.13;;;26.02;;
75576;SDS011;64157;50.138;14.544;2022-11-20T08:30:28;60.60;;;25.48;;
75576;SDS011;64157;50.138;14.544;2022-11-20T08:32:54;62.45;;;26.75;;
75576;SDS011;64157;50.138;14.544;2022-11-20T08:35:25;59.08;;;25.80;;
75576;SDS011;64157;50.138;14.544;2022-11-20T08:37:51;63.70;;;26.13;;
75576;SDS011;64157;50.138;14.544;2022-11-20T08:40:16;55.72;;;24.42;;
75576;SDS011;64157;50.138;14.544;2022-11-20T08:42:45;24.67;;;12.95;;
75576;SDS011;64157;50.138;14.544;2022-11-20T08:45:14;32.25;;;17.20;;
75576;SDS011;64157;50.138;14.544;2022-11-20T08:47:41;58.97;;;26.73;;
75576;SDS011;64157;50.138;14.544;2022-11-20T08:50:07;57.42;;;26.63;;
75576;SDS011;64157;50.138;14.544;2022-11-20T08:52:34;59.78;;;27.15;;
75576;SDS011;64157;50.138;14.544;2022-11-20T08:55:00;52.28;;;21.15;;
75576;SDS011;64157;50.138;14.544;2022-11-20T08:57:25;63.47;;;27.98;;
75576;SDS011;64157;50.138;14.544;2022-11-20T08:59:50;52.33;;;23.05;;
75576;SDS011;64157;50.138;14.544;2022-11-20T09:02:16;62.08;;;27.13;;
75576;SDS011;64157;50.138;14.544;2022-11-20T09:04:41;64.93;;;28.55;;
75576;SDS011;64157;50.138;14.544;2022-11-20T09:07:07;70.10;;;34.08;;
75576;SDS011;64157;50.138;14.544;2022-11-20T09:09:32;73.22;;;29.92;;
75576;SDS011;64157;50.138;14.544;2022-11-20T09:11:58;64.70;;;27.95;;
75576;SDS011;64157;50.138;14.544;2022-11-20T09:14:23;71.68;;;31.35;;
75576;SDS011;64157;50.138;14.544;2022-11-20T09:16:54;57.33;;;26.95;;
75576;SDS011;64157;50.138;14.544;2022-11-20T09:19:20;63.03;;;26.77;;
75576;SDS011;64157;50.138;14.544;2022-11-20T09:21:45;63.10;;;27.45;;
75576;SDS011;64157;50.138;14.544;2022-11-20T09:24:10;59.20;;;26.00;;
75576;SDS011;64157;50.138;14.544;2022-11-20T09:26:36;54.92;;;24.77;;
75576;SDS011;64157;50.138;14.544;2022-11-20T09:29:01;54.33;;;24.95;;
75576;SDS011;64157;50.138;14.544;2022-11-20T09:31:27;59.53;;;23.10;;
75576;SDS011;64157;50.138;14.544;2022-11-20T09:33:52;49.72;;;23.92;;
75576;SDS011;64157;50.138;14.544;2022-11-20T09:36:18;50.83;;;24.13;;
75576;SDS011;64157;50.138;14.544;2022-11-20T09:38:44;56.55;;;25.80;;
75576;SDS011;64157;50.138;14.544;2022-11-20T09:41:19;58.70;;;25.83;;
75576;SDS011;64157;50.138;14.544;2022-11-20T09:46:47;58.15;;;25.98;;
75576;SDS011;64157;50.138;14.544;2022-11-20T09:55:29;56.13;;;25.25;;
75576;SDS011;64157;50.138;14.544;2022-11-20T09:57:56;56.20;;;26.25;;
75576;SDS011;64157;50.138;14.544;2022-11-20T10:00:24;58.90;;;27.25;;
75576;SDS011;64157;50.138;14.544;2022-11-20T10:16:56;53.20;;;24.55;;
75576;SDS011;64157;50.138;14.544;2022-11-20T10:19:53;52.67;;;23.75;;
75576;SDS011;64157;50.138;14.544;2022-11-20T10:25:16;54.70;;;24.30;;
75576;SDS011;64157;50.138;14.544;2022-11-20T10:30:45;52.45;;;24.13;;
75576;SDS011;64157;50.138;14.544;2022-11-20T10:33:21;51.08;;;23.75;;
75576;SDS011;64157;50.138;14.544;2022-11-20T10:35:53;56.70;;;26.30;;
75576;SDS011;64157;50.138;14.544;2022-11-20T10:38:40;49.92;;;24.65;;
75576;SDS011;64157;50.138;14.544;2022-11-20T10:41:19;57.97;;;25.95;;
75576;SDS011;64157;50.138;14.544;2022-11-20T10:44:38;58.22;;;26.85;;
75576;SDS011;64157;50.138;14.544;2022-11-20T10:47:04;54.30;;;24.30;;
75576;SDS011;64157;50.138;14.544;2022-11-20T10:49:30;56.20;;;25.77;;
75576;SDS011;64157;50.138;14.544;2022-11-20T10:55:02;57.17;;;24.77;;
75576;SDS011;64157;50.138;14.544;2022-11-20T11:00:17;54.97;;;25.95;;
75576;SDS011;64157;50.138;14.544;2022-11-20T11:02:47;58.53;;;27.60;;
75576;SDS011;64157;50.138;14.544;2022-11-20T11:05:17;63.45;;;27.98;;
75576;SDS011;64157;50.138;14.544;2022-11-20T11:07:53;56.60;;;24.92;;
75576;SDS011;64157;50.138;14.544;2022-11-20T11:13:06;23.92;;;13.65;;
75576;SDS011;64157;50.138;14.544;2022-11-20T11:15:37;49.60;;;22.08;;
75576;SDS011;64157;50.138;14.544;2022-11-20T11:18:04;25.55;;;14.05;;
75576;SDS011;64157;50.138;14.544;2022-11-20T11:20:33;23.98;;;13.80;;
75576;SDS011;64157;50.138;14.544;2022-11-20T11:22:59;48.60;;;20.50;;
75576;SDS011;64157;50.138;14.544;2022-11-20T11:25:26;51.65;;;24.52;;
75576;SDS011;64157;50.138;14.544;2022-11-20T11:27:52;35.45;;;17.95;;
75576;SDS011;64157;50.138;14.544;2022-11-20T11:30:20;62.90;;;28.30;;
75576;SDS011;64157;50.138;14.544;2022-11-20T11:32:46;55.13;;;28.13;;
75576;SDS011;64157;50.138;14.544;2022-11-20T11:35:20;65.63;;;30.10;;
75576;SDS011;64157;50.138;14.544;2022-11-20T11:37:51;69.13;;;31.00;;
75576;SDS011;64157;50.138;14.544;2022-11-20T11:40:20;54.50;;;27.73;;
75576;SDS011;64157;50.138;14.544;2022-11-20T11:42:50;56.90;;;28.42;;
75576;SDS011;64157;50.138;14.544;2022-11-20T11:45:19;55.67;;;28.35;;
75576;SDS011;64157;50.138;14.544;2022-11-20T11:47:46;60.67;;;29.70;;
75576;SDS011;64157;50.138;14.544;2022-11-20T11:50:20;55.65;;;26.45;;
75576;SDS011;64157;50.138;14.544;2022-11-20T12:07:22;61.45;;;27.63;;
75576;SDS011;64157;50.138;14.544;2022-11-20T12:10:03;55.92;;;26.60;;
75576;SDS011;64157;50.138;14.544;2022-11-20T12:12:34;59.58;;;28.55;;
75576;SDS011;64157;50.138;14.544;2022-11-20T12:15:09;65.97;;;28.92;;
75576;SDS011;64157;50.138;14.544;2022-11-20T12:17:37;62.85;;;28.67;;
75576;SDS011;64157;50.138;14.544;2022-11-20T12:20:02;58.95;;;28.92;;
75576;SDS011;64157;50.138;14.544;2022-11-20T12:22:35;56.15;;;28.10;;
75576;SDS011;64157;50.138;14.544;2022-11-20T12:25:19;64.53;;;30.70;;
75576;SDS011;64157;50.138;14.544;2022-11-20T16:00:22;81.85;;;38.05;;
75576;SDS011;64157;50.138;14.544;2022-11-20T16:02:48;94.70;;;43.78;;
75576;SDS011;64157;50.138;14.544;2022-11-20T16:19:42;81.78;;;36.95;;
75576;SDS011;64157;50.138;14.544;2022-11-20T16:22:11;71.75;;;32.30;;
75576;SDS011;64157;50.138;14.544;2022-11-20T16:24:37;76.88;;;37.58;;
75576;SDS011;64157;50.138;14.544;2022-11-20T16:27:09;82.75;;;37.42;;
75576;SDS011;64157;50.138;14.544;2022-11-20T16:29:48;86.57;;;38.78;;
75576;SDS011;64157;50.138;14.544;2022-11-20T16:32:20;85.90;;;38.78;;
75576;SDS011;64157;50.138;14.544;2022-11-20T16:35:10;67.90;;;31.73;;
75576;SDS011;64157;50.138;14.544;2022-11-20T16:37:46;67.45;;;32.40;;
75576;SDS011;64157;50.138;14.544;2022-11-20T16:40:12;46.08;;;25.20;;
75576;SDS011;64157;50.138;14.544;2022-11-20T16:42:38;76.47;;;35.13;;
75576;SDS011;64157;50.138;14.544;2022-11-20T16:45:05;82.32;;;35.08;;
75576;SDS011;64157;50.138;14.544;2022-11-20T16:47:33;83.32;;;33.88;;
75576;SDS011;64157;50.138;14.544;2022-11-20T16:50:00;78.65;;;35.28;;
75576;SDS011;64157;50.138;14.544;2022-11-20T16:52:29;49.38;;;21.27;;
75576;SDS011;64157;50.138;14.544;2022-11-20T16:54:55;97.97;;;41.85;;
75576;SDS011;64157;50.138;14.544;2022-11-20T16:57:24;99.30;;;41.95;;
75576;SDS011;64157;50.138;14.544;2022-11-20T16:59:49;99.03;;;43.22;;
75576;SDS011;64157;50.138;14.544;2022-11-20T17:02:15;92.32;;;42.70;;
75576;SDS011;64157;50.138;14.544;2022-11-20T17:04:40;96.63;;;41.63;;
75576;SDS011;64157;50.138;14.544;2022-11-20T17:07:06;114.15;;;48.92;;
75576;SDS011;64157;50.138;14.544;2022-11-20T17:09:32;99.68;;;43.53;;
75576;SDS011;64157;50.138;14.544;2022-11-20T17:11:58;87.25;;;37.47;;
75576;SDS011;64157;50.138;14.544;2022-11-20T17:14:24;105.15;;;42.88;;
75576;SDS011;64157;50.138;14.544;2022-11-20T17:16:49;110.00;;;44.75;;
75576;SDS011;64157;50.138;14.544;2022-11-20T17:19:14;99.80;;;43.22;;
75576;SDS011;64157;50.138;14.544;2022-11-20T17:21:40;98.20;;;40.53;;
75576;SDS011;64157;50.138;14.544;2022-11-20T17:24:13;96.38;;;42.75;;
75576;SDS011;64157;50.138;14.544;2022-11-20T17:26:41;84.43;;;33.80;;
75576;SDS011;64157;50.138;14.544;2022-11-20T17:29:09;90.10;;;41.95;;
75576;SDS011;64157;50.138;14.544;2022-11-20T17:31:39;97.53;;;37.40;;
75576;SDS011;64157;50.138;14.544;2022-11-20T17:34:05;95.25;;;41.13;;
75576;SDS011;64157;50.138;14.544;2022-11-20T17:36:32;72.38;;;33.97;;
75576;SDS011;64157;50.138;14.544;2022-11-20T17:38:58;94.85;;;42.83;;
75576;SDS011;64157;50.138;14.544;2022-11-20T17:41:25;74.75;;;33.28;;
75576;SDS011;64157;50.138;14.544;2022-11-20T17:43:56;102.28;;;43.22;;
75576;SDS011;64157;50.138;14.544;2022-11-20T17:46:24;104.70;;;45.78;;
75576;SDS011;64157;50.138;14.544;2022-11-20T17:48:51;111.28;;;50.35;;
75576;SDS011;64157;50.138;14.544;2022-11-20T17:51:20;107.88;;;47.67;;
75576;SDS011;64157;50.138;14.544;2022-11-20T17:53:48;99.28;;;42.25;;
75576;SDS011;64157;50.138;14.544;2022-11-20T17:56:16;98.25;;;41.13;;
75576;SDS011;64157;50.138;14.544;2022-11-20T17:59:07;86.28;;;40.95;;
75576;SDS011;64157;50.138;14.544;2022-11-20T18:01:37;118.68;;;49.38;;
75576;SDS011;64157;50.138;14.544;2022-11-20T18:04:03;106.13;;;46.10;;
75576;SDS011;64157;50.138;14.544;2022-11-20T18:06:29;108.20;;;45.75;;
75576;SDS011;64157;50.138;14.544;2022-11-20T18:08:59;113.10;;;50.45;;
75576;SDS011;64157;50.138;14.544;2022-11-20T18:13:53;116.03;;;52.40;;
75576;SDS011;64157;50.138;14.544;2022-11-20T18:16:43;109.22;;;49.00;;
75576;SDS011;64157;50.138;14.544;2022-11-20T18:19:11;118.25;;;48.50;;
75576;SDS011;64157;50.138;14.544;2022-11-20T18:21:38;125.50;;;51.05;;
75576;SDS011;64157;50.138;14.544;2022-11-20T18:24:04;109.90;;;48.58;;
75576;SDS011;64157;50.138;14.544;2022-11-20T18:26:30;111.13;;;49.72;;
75576;SDS011;64157;50.138;14.544;2022-11-20T18:28:55;107.95;;;45.65;;
75576;SDS011;64157;50.138;14.544;2022-11-20T18:31:21;112.65;;;46.17;;
75576;SDS011;64157;50.138;14.544;2022-11-20T18:33:47;116.90;;;43.85;;
75576;SDS011;64157;50.138;14.544;2022-11-20T18:38:39;106.05;;;43.13;;
75576;SDS011;64157;50.138;14.544;2022-11-20T18:41:06;104.05;;;44.40;;
75576;SDS011;64157;50.138;14.544;2022-11-20T18:43:32;92.85;;;41.60;;
75576;SDS011;64157;50.138;14.544;2022-11-20T18:46:17;80.93;;;33.72;;
75576;SDS011;64157;50.138;14.544;2022-11-20T18:48:44;87.47;;;34.63;;
75576;SDS011;64157;50.138;14.544;2022-11-20T18:51:10;84.72;;;37.63;;
75576;SDS011;64157;50.138;14.544;2022-11-20T18:53:38;94.10;;;38.58;;
75576;SDS011;64157;50.138;14.544;2022-11-20T18:56:04;89.53;;;35.25;;
75576;SDS011;64157;50.138;14.544;2022-11-20T18:58:30;98.47;;;39.03;;
75576;SDS011;64157;50.138;14.544;2022-11-20T19:00:56;86.70;;;36.17;;
75576;SDS011;64157;50.138;14.544;2022-11-20T19:03:29;81.22;;;35.25;;
75576;SDS011;64157;50.138;14.544;2022-11-20T19:05:54;79.55;;;31.77;;
75576;SDS011;64157;50.138;14.544;2022-11-20T19:08:20;86.70;;;34.58;;
75576;SDS011;64157;50.138;14.544;2022-11-20T19:10:45;65.22;;;28.45;;
75576;SDS011;64157;50.138;14.544;2022-11-20T19:13:10;82.32;;;31.50;;
75576;SDS011;64157;50.138;14.544;2022-11-20T19:15:36;78.88;;;33.40;;
75576;SDS011;64157;50.138;14.544;2022-11-20T19:18:01;83.85;;;33.22;;
75576;SDS011;64157;50.138;14.544;2022-11-20T19:20:27;88.55;;;33.47;;
75576;SDS011;64157;50.138;14.544;2022-11-20T19:22:52;74.60;;;30.50;;
75576;SDS011;64157;50.138;14.544;2022-11-20T19:25:18;71.25;;;28.50;;
75576;SDS011;64157;50.138;14.544;2022-11-20T19:27:43;69.85;;;30.02;;
75576;SDS011;64157;50.138;14.544;2022-11-20T19:30:09;71.57;;;29.13;;
75576;SDS011;64157;50.138;14.544;2022-11-20T19:32:35;75.32;;;31.25;;
75576;SDS011;64157;50.138;14.544;2022-11-20T19:35:00;82.50;;;33.10;;
75576;SDS011;64157;50.138;14.544;2022-11-20T19:37:27;98.40;;;37.78;;
75576;SDS011;64157;50.138;14.544;2022-11-20T19:39:59;86.45;;;35.00;;
75576;SDS011;64157;50.138;14.544;2022-11-20T19:42:28;96.80;;;37.63;;
75576;SDS011;64157;50.138;14.544;2022-11-20T19:44:54;91.63;;;35.75;;
75576;SDS011;64157;50.138;14.544;2022-11-20T19:47:22;95.32;;;36.45;;
75576;SDS011;64157;50.138;14.544;2022-11-20T19:49:47;97.20;;;37.22;;
75576;SDS011;64157;50.138;14.544;2022-11-20T19:52:13;98.78;;;40.83;;
75576;SDS011;64157;50.138;14.544;2022-11-20T19:54:38;106.13;;;43.13;;
75576;SDS011;64157;50.138;14.544;2022-11-20T19:57:04;108.60;;;44.35;;
75576;SDS011;64157;50.138;14.544;2022-11-20T19:59:29;107.88;;;46.42;;
75576;SDS011;64157;50.138;14.544;2022-11-20T20:01:55;129.68;;;53.92;;
75576;SDS011;64157;50.138;14.544;2022-11-20T20:04:20;134.98;;;57.35;;
75576;SDS011;64157;50.138;14.544;2022-11-20T20:06:45;139.38;;;59.00;;
75576;SDS011;64157;50.138;14.544;2022-11-20T20:09:11;141.73;;;59.65;;
75576;SDS011;64157;50.138;14.544;2022-11-20T20:11:38;176.90;;;57.35;;
75576;SDS011;64157;50.138;14.544;2022-11-20T20:14:05;150.95;;;61.58;;
75576;SDS011;64157;50.138;14.544;2022-11-20T20:16:38;182.95;;;60.40;;
75576;SDS011;64157;50.138;14.544;2022-11-20T20:19:04;161.50;;;59.05;;
75576;SDS011;64157;50.138;14.544;2022-11-20T20:21:30;154.45;;;58.42;;
75576;SDS011;64157;50.138;14.544;2022-11-20T20:23:57;154.88;;;56.05;;
75576;SDS011;64157;50.138;14.544;2022-11-20T20:26:23;154.85;;;57.80;;
75576;SDS011;64157;50.138;14.544;2022-11-20T20:28:49;160.05;;;60.75;;
75576;SDS011;64157;50.138;14.544;2022-11-20T20:31:16;169.95;;;59.08;;
75576;SDS011;64157;50.138;14.544;2022-11-20T20:33:43;159.30;;;54.42;;
75576;SDS011;64157;50.138;14.544;2022-11-20T20:36:10;143.40;;;53.83;;
75576;SDS011;64157;50.138;14.544;2022-11-20T20:38:37;134.45;;;52.78;;
75576;SDS011;64157;50.138;14.544;2022-11-20T20:41:03;144.88;;;56.00;;
75576;SDS011;64157;50.138;14.544;2022-11-20T20:43:29;147.73;;;56.40;;
75576;SDS011;64157;50.138;14.544;2022-11-20T20:45:55;143.68;;;57.53;;
75576;SDS011;64157;50.138;14.544;2022-11-20T20:48:21;140.32;;;55.28;;
75576;SDS011;64157;50.138;14.544;2022-11-20T20:50:55;136.75;;;55.50;;
75576;SDS011;64157;50.138;14.544;2022-11-20T20:53:21;141.88;;;51.90;;
75576;SDS011;64157;50.138;14.544;2022-11-20T20:55:59;146.30;;;53.20;;
75576;SDS011;64157;50.138;14.544;2022-11-20T20:58:26;152.15;;;53.40;;
75576;SDS011;64157;50.138;14.544;2022-11-20T21:00:53;169.95;;;53.88;;
75576;SDS011;64157;50.138;14.544;2022-11-20T21:03:24;177.60;;;52.60;;
75576;SDS011;64157;50.138;14.544;2022-11-20T21:05:54;160.65;;;53.15;;
75576;SDS011;64157;50.138;14.544;2022-11-20T21:08:21;141.77;;;51.25;;
75576;SDS011;64157;50.138;14.544;2022-11-20T21:10:53;163.18;;;53.67;;
75576;SDS011;64157;50.138;14.544;2022-11-20T21:13:21;156.07;;;52.33;;
75576;SDS011;64157;50.138;14.544;2022-11-20T21:15:47;145.48;;;52.60;;
75576;SDS011;64157;50.138;14.544;2022-11-20T21:18:18;154.30;;;53.40;;
75576;SDS011;64157;50.138;14.544;2022-11-20T21:20:45;135.88;;;54.03;;
75576;SDS011;64157;50.138;14.544;2022-11-20T21:23:30;132.35;;;52.45;;
75576;SDS011;64157;50.138;14.544;2022-11-20T21:25:55;133.20;;;49.90;;
75576;SDS011;64157;50.138;14.544;2022-11-20T21:28:24;125.18;;;50.00;;
75576;SDS011;64157;50.138;14.544;2022-11-20T21:30:49;115.53;;;46.58;;
75576;SDS011;64157;50.138;14.544;2022-11-20T21:33:14;135.07;;;52.83;;
75576;SDS011;64157;50.138;14.544;2022-11-20T21:35:40;139.90;;;53.40;;
75576;SDS011;64157;50.138;14.544;2022-11-20T21:38:05;123.72;;;50.60;;
75576;SDS011;64157;50.138;14.544;2022-11-20T21:40:31;137.55;;;53.00;;
75576;SDS011;64157;50.138;14.544;2022-11-20T21:42:56;128.77;;;48.65;;
75576;SDS011;64157;50.138;14.544;2022-11-20T21:45:21;144.57;;;52.00;;
75576;SDS011;64157;50.138;14.544;2022-11-20T21:47:47;133.30;;;50.65;;
75576;SDS011;64157;50.138;14.544;2022-11-20T21:50:14;133.48;;;53.08;;
75576;SDS011;64157;50.138;14.544;2022-11-20T21:52:40;142.10;;;54.10;;
75576;SDS011;64157;50.138;14.544;2022-11-20T21:55:05;136.82;;;54.70;;
75576;SDS011;64157;50.138;14.544;2022-11-20T21:57:34;137.23;;;52.80;;
75576;SDS011;64157;50.138;14.544;2022-11-20T22:00:00;128.48;;;51.17;;
75576;SDS011;64157;50.138;14.544;2022-11-20T22:02:28;130.73;;;52.28;;
75576;SDS011;64157;50.138;14.544;2022-11-20T22:04:53;137.55;;;53.38;;
75576;SDS011;64157;50.138;14.544;2022-11-20T22:07:19;114.82;;;46.40;;
75576;SDS011;64157;50.138;14.544;2022-11-20T22:09:44;121.65;;;48.17;;
75576;SDS011;64157;50.138;14.544;2022-11-20T22:12:10;120.40;;;48.30;;
75576;SDS011;64157;50.138;14.544;2022-11-20T22:14:35;124.70;;;48.92;;
75576;SDS011;64157;50.138;14.544;2022-11-20T22:17:01;128.05;;;53.15;;
75576;SDS011;64157;50.138;14.544;2022-11-20T22:19:26;126.68;;;49.30;;
75576;SDS011;64157;50.138;14.544;2022-11-20T22:21:52;108.28;;;44.60;;
75576;SDS011;64157;50.138;14.544;2022-11-20T22:24:18;108.05;;;45.38;;
75576;SDS011;64157;50.138;14.544;2022-11-20T22:26:45;107.63;;;45.92;;
75576;SDS011;64157;50.138;14.544;2022-11-20T22:29:15;107.47;;;42.80;;
75576;SDS011;64157;50.138;14.544;2022-11-20T22:31:42;66.93;;;28.77;;
75576;SDS011;64157;50.138;14.544;2022-11-20T22:34:11;88.53;;;38.00;;
75576;SDS011;64157;50.138;14.544;2022-11-20T22:36:37;81.85;;;35.50;;
75576;SDS011;64157;50.138;14.544;2022-11-20T22:39:04;67.93;;;30.73;;
75576;SDS011;64157;50.138;14.544;2022-11-20T22:41:30;76.47;;;35.20;;
75576;SDS011;64157;50.138;14.544;2022-11-20T22:43:56;60.58;;;27.25;;
75576;SDS011;64157;50.138;14.544;2022-11-20T22:46:24;79.57;;;35.80;;
75576;SDS011;64157;50.138;14.544;2022-11-20T22:48:51;87.72;;;36.15;;
75576;SDS011;64157;50.138;14.544;2022-11-20T22:51:19;72.72;;;33.00;;
75576;SDS011;64157;50.138;14.544;2022-11-20T22:53:46;79.95;;;33.70;;
75576;SDS011;64157;50.138;14.544;2022-11-20T22:56:13;75.05;;;31.73;;
75576;SDS011;64157;50.138;14.544;2022-11-20T22:58:40;84.25;;;35.35;;
75576;SDS011;64157;50.138;14.544;2022-11-20T23:01:11;79.35;;;34.15;;
75576;SDS011;64157;50.138;14.544;2022-11-20T23:03:38;82.60;;;36.63;;
75576;SDS011;64157;50.138;14.544;2022-11-20T23:06:05;84.70;;;36.80;;
75576;SDS011;64157;50.138;14.544;2022-11-20T23:08:31;86.93;;;36.72;;
75576;SDS011;64157;50.138;14.544;2022-11-20T23:11:02;84.50;;;36.53;;
75576;SDS011;64157;50.138;14.544;2022-11-20T23:13:32;80.93;;;34.03;;
75576;SDS011;64157;50.138;14.544;2022-11-20T23:16:08;79.03;;;37.13;;
75576;SDS011;64157;50.138;14.544;2022-11-20T23:18:34;75.65;;;33.88;;
75576;SDS011;64157;50.138;14.544;2022-11-20T23:21:05;61.53;;;26.35;;
75576;SDS011;64157;50.138;14.544;2022-11-20T23:23:38;74.68;;;32.00;;
75576;SDS011;64157;50.138;14.544;2022-11-20T23:26:05;90.05;;;36.47;;
75576;SDS011;64157;50.138;14.544;2022-11-20T23:28:32;86.40;;;35.80;;
75576;SDS011;64157;50.138;14.544;2022-11-20T23:30:58;85.32;;;34.70;;
75576;SDS011;64157;50.138;14.544;2022-11-20T23:33:24;64.95;;;28.27;;
75576;SDS011;64157;50.138;14.544;2022-11-20T23:35:50;67.45;;;27.67;;
75576;SDS011;64157;50.138;14.544;2022-11-20T23:38:15;66.15;;;29.40;;
75576;SDS011;64157;50.138;14.544;2022-11-20T23:40:45;74.43;;;29.77;;
75576;SDS011;64157;50.138;14.544;2022-11-20T23:43:14;65.10;;;29.83;;
75576;SDS011;64157;50.138;14.544;2022-11-20T23:45:41;74.40;;;30.77;;
75576;SDS011;64157;50.138;14.544;2022-11-20T23:48:07;69.32;;;29.38;;
75576;SDS011;64157;50.138;14.544;2022-11-20T23:50:33;38.92;;;19.10;;
75576;SDS011;64157;50.138;14.544;2022-11-20T23:52:59;28.85;;;16.15;;
75576;SDS011;64157;50.138;14.544;2022-11-20T23:55:25;66.40;;;29.65;;
75576;SDS011;64157;50.138;14.544;2022-11-20T23:57:50;26.63;;;15.15;;
